Portage la Prairie, Canada
Current Conditions -  °F | °C
As of 9:00 AM on Thursday 30 Oct 2014 (Local Time) from CYPG Reporting Station
Overcast Overcast  
Wind Chill: -6°   Ceiling: 2200
Heat Index:   Visibility: 15mi
Dew Point: -3°   Wind: 16mph
Humidity: 80%   Direction: 310°NW
Pressure: 30.31"   Gusts: 24mph
Location:  49.97°N, 98.29°W
Report Text: CYPG 301400Z 31014G21KT 15SM OVC022 M00/M03 A3031 RMK SC8SLP277
Loading
Personal Weather Stations






























Interactive Weather Map
Tropical Storm Tracking
New forecast layout! Learn more

10-Day Weather Forecast

Advertisements
Track Severe Weather on mobile